sensor_id;sensor_type;location;lat;lon;timestamp;P1;durP1;ratioP1;P2;durP2;ratioP2
15536;SDS011;7870;52.448;13.270;2023-05-07T00:00:58;16.77;;;15.07;;
15536;SDS011;7870;52.448;13.270;2023-05-07T00:03:25;15.75;;;14.18;;
15536;SDS011;7870;52.448;13.270;2023-05-07T00:05:52;16.13;;;14.43;;
15536;SDS011;7870;52.448;13.270;2023-05-07T00:08:19;15.88;;;14.32;;
15536;SDS011;7870;52.448;13.270;2023-05-07T00:10:46;17.02;;;15.20;;
15536;SDS011;7870;52.448;13.270;2023-05-07T00:13:13;19.15;;;15.88;;
15536;SDS011;7870;52.448;13.270;2023-05-07T00:15:39;15.70;;;14.25;;
15536;SDS011;7870;52.448;13.270;2023-05-07T00:18:06;16.45;;;14.88;;
15536;SDS011;7870;52.448;13.270;2023-05-07T00:20:33;15.20;;;13.80;;
15536;SDS011;7870;52.448;13.270;2023-05-07T00:23:01;16.27;;;14.23;;
15536;SDS011;7870;52.448;13.270;2023-05-07T00:25:28;17.33;;;13.95;;
15536;SDS011;7870;52.448;13.270;2023-05-07T00:27:54;15.13;;;13.60;;
15536;SDS011;7870;52.448;13.270;2023-05-07T00:30:21;16.08;;;14.45;;
15536;SDS011;7870;52.448;13.270;2023-05-07T00:32:47;15.30;;;13.85;;
15536;SDS011;7870;52.448;13.270;2023-05-07T00:35:15;15.73;;;14.15;;
15536;SDS011;7870;52.448;13.270;2023-05-07T00:37:41;14.80;;;13.25;;
15536;SDS011;7870;52.448;13.270;2023-05-07T00:40:08;14.32;;;12.95;;
15536;SDS011;7870;52.448;13.270;2023-05-07T00:42:35;14.23;;;12.80;;
15536;SDS011;7870;52.448;13.270;2023-05-07T00:45:02;15.27;;;13.75;;
15536;SDS011;7870;52.448;13.270;2023-05-07T00:47:29;12.95;;;11.70;;
15536;SDS011;7870;52.448;13.270;2023-05-07T00:49:56;15.60;;;13.30;;
15536;SDS011;7870;52.448;13.270;2023-05-07T00:52:23;15.75;;;13.43;;
15536;SDS011;7870;52.448;13.270;2023-05-07T00:54:51;14.57;;;13.10;;
15536;SDS011;7870;52.448;13.270;2023-05-07T00:57:18;14.88;;;13.15;;
15536;SDS011;7870;52.448;13.270;2023-05-07T00:59:46;13.63;;;12.25;;
15536;SDS011;7870;52.448;13.270;2023-05-07T01:02:12;13.13;;;11.82;;
15536;SDS011;7870;52.448;13.270;2023-05-07T01:04:39;12.48;;;11.18;;
15536;SDS011;7870;52.448;13.270;2023-05-07T01:07:06;12.98;;;10.88;;
15536;SDS011;7870;52.448;13.270;2023-05-07T01:09:34;12.20;;;11.10;;
15536;SDS011;7870;52.448;13.270;2023-05-07T01:12:01;13.55;;;11.32;;
15536;SDS011;7870;52.448;13.270;2023-05-07T01:14:29;11.63;;;10.50;;
15536;SDS011;7870;52.448;13.270;2023-05-07T01:16:57;12.68;;;10.70;;
15536;SDS011;7870;52.448;13.270;2023-05-07T01:19:25;11.77;;;10.32;;
15536;SDS011;7870;52.448;13.270;2023-05-07T01:21:53;13.25;;;10.05;;
15536;SDS011;7870;52.448;13.270;2023-05-07T01:24:29;11.98;;;9.73;;
15536;SDS011;7870;52.448;13.270;2023-05-07T01:26:58;12.05;;;9.77;;
15536;SDS011;7870;52.448;13.270;2023-05-07T01:29:24;10.23;;;9.02;;
15536;SDS011;7870;52.448;13.270;2023-05-07T01:31:51;9.88;;;8.88;;
15536;SDS011;7870;52.448;13.270;2023-05-07T01:34:19;9.80;;;8.80;;
15536;SDS011;7870;52.448;13.270;2023-05-07T01:36:46;11.85;;;10.65;;
15536;SDS011;7870;52.448;13.270;2023-05-07T01:39:13;12.30;;;10.07;;
15536;SDS011;7870;52.448;13.270;2023-05-07T01:41:40;13.02;;;10.50;;
15536;SDS011;7870;52.448;13.270;2023-05-07T01:44:06;11.15;;;9.90;;
15536;SDS011;7870;52.448;13.270;2023-05-07T01:46:34;10.10;;;8.90;;
15536;SDS011;7870;52.448;13.270;2023-05-07T01:49:01;11.38;;;9.52;;
15536;SDS011;7870;52.448;13.270;2023-05-07T01:51:27;11.68;;;8.95;;
15536;SDS011;7870;52.448;13.270;2023-05-07T01:53:54;10.30;;;9.23;;
15536;SDS011;7870;52.448;13.270;2023-05-07T01:56:21;11.75;;;10.52;;
15536;SDS011;7870;52.448;13.270;2023-05-07T01:58:48;12.57;;;11.38;;
15536;SDS011;7870;52.448;13.270;2023-05-07T02:01:15;12.88;;;11.00;;
15536;SDS011;7870;52.448;13.270;2023-05-07T02:03:42;13.63;;;12.32;;
15536;SDS011;7870;52.448;13.270;2023-05-07T02:06:17;12.38;;;11.18;;
15536;SDS011;7870;52.448;13.270;2023-05-07T02:08:44;14.52;;;12.85;;
15536;SDS011;7870;52.448;13.270;2023-05-07T02:11:12;16.58;;;13.23;;
15536;SDS011;7870;52.448;13.270;2023-05-07T02:13:39;13.05;;;11.52;;
15536;SDS011;7870;52.448;13.270;2023-05-07T02:16:05;12.48;;;11.27;;
15536;SDS011;7870;52.448;13.270;2023-05-07T02:18:33;13.32;;;11.82;;
15536;SDS011;7870;52.448;13.270;2023-05-07T02:20:59;13.13;;;11.68;;
15536;SDS011;7870;52.448;13.270;2023-05-07T02:23:26;13.65;;;12.10;;
15536;SDS011;7870;52.448;13.270;2023-05-07T02:25:53;14.35;;;12.43;;
15536;SDS011;7870;52.448;13.270;2023-05-07T02:28:19;16.30;;;11.70;;
15536;SDS011;7870;52.448;13.270;2023-05-07T02:30:50;12.88;;;11.05;;
15536;SDS011;7870;52.448;13.270;2023-05-07T02:33:17;12.50;;;11.30;;
15536;SDS011;7870;52.448;13.270;2023-05-07T02:35:44;12.93;;;11.63;;
15536;SDS011;7870;52.448;13.270;2023-05-07T02:38:13;13.85;;;11.65;;
15536;SDS011;7870;52.448;13.270;2023-05-07T02:40:40;13.25;;;11.85;;
15536;SDS011;7870;52.448;13.270;2023-05-07T02:43:07;12.48;;;11.18;;
15536;SDS011;7870;52.448;13.270;2023-05-07T02:45:34;12.93;;;11.10;;
15536;SDS011;7870;52.448;13.270;2023-05-07T02:48:04;11.82;;;10.55;;
15536;SDS011;7870;52.448;13.270;2023-05-07T02:50:32;11.82;;;10.70;;
15536;SDS011;7870;52.448;13.270;2023-05-07T02:52:58;14.30;;;11.40;;
15536;SDS011;7870;52.448;13.270;2023-05-07T02:55:25;13.68;;;12.23;;
15536;SDS011;7870;52.448;13.270;2023-05-07T02:57:52;12.88;;;11.57;;
15536;SDS011;7870;52.448;13.270;2023-05-07T03:00:19;13.10;;;11.73;;
15536;SDS011;7870;52.448;13.270;2023-05-07T03:02:53;12.73;;;11.48;;
15536;SDS011;7870;52.448;13.270;2023-05-07T03:05:20;13.50;;;10.63;;
15536;SDS011;7870;52.448;13.270;2023-05-07T03:07:46;13.20;;;11.90;;
15536;SDS011;7870;52.448;13.270;2023-05-07T03:10:14;11.30;;;10.18;;
15536;SDS011;7870;52.448;13.270;2023-05-07T03:12:41;11.13;;;10.05;;
15536;SDS011;7870;52.448;13.270;2023-05-07T03:15:10;11.07;;;9.52;;
15536;SDS011;7870;52.448;13.270;2023-05-07T03:17:39;12.63;;;11.32;;
15536;SDS011;7870;52.448;13.270;2023-05-07T03:20:05;11.88;;;10.57;;
15536;SDS011;7870;52.448;13.270;2023-05-07T03:22:33;11.93;;;10.63;;
15536;SDS011;7870;52.448;13.270;2023-05-07T03:25:00;12.68;;;11.10;;
15536;SDS011;7870;52.448;13.270;2023-05-07T03:27:27;15.43;;;11.23;;
15536;SDS011;7870;52.448;13.270;2023-05-07T03:29:54;14.48;;;11.27;;
15536;SDS011;7870;52.448;13.270;2023-05-07T03:32:20;11.65;;;10.27;;
15536;SDS011;7870;52.448;13.270;2023-05-07T03:34:47;15.77;;;11.30;;
15536;SDS011;7870;52.448;13.270;2023-05-07T03:37:14;11.85;;;10.63;;
15536;SDS011;7870;52.448;13.270;2023-05-07T03:39:42;14.57;;;10.68;;
15536;SDS011;7870;52.448;13.270;2023-05-07T03:42:09;12.43;;;11.23;;
15536;SDS011;7870;52.448;13.270;2023-05-07T03:44:36;11.82;;;10.65;;
15536;SDS011;7870;52.448;13.270;2023-05-07T03:47:03;12.43;;;10.82;;
15536;SDS011;7870;52.448;13.270;2023-05-07T03:49:30;11.00;;;9.85;;
15536;SDS011;7870;52.448;13.270;2023-05-07T03:51:57;12.60;;;11.30;;
15536;SDS011;7870;52.448;13.270;2023-05-07T03:54:24;11.95;;;10.75;;
15536;SDS011;7870;52.448;13.270;2023-05-07T03:56:51;11.63;;;10.35;;
15536;SDS011;7870;52.448;13.270;2023-05-07T03:59:17;11.10;;;10.07;;
15536;SDS011;7870;52.448;13.270;2023-05-07T04:01:46;12.32;;;11.02;;
15536;SDS011;7870;52.448;13.270;2023-05-07T04:04:15;12.38;;;10.13;;
15536;SDS011;7870;52.448;13.270;2023-05-07T04:06:42;11.05;;;9.95;;
15536;SDS011;7870;52.448;13.270;2023-05-07T04:09:09;11.98;;;10.80;;
15536;SDS011;7870;52.448;13.270;2023-05-07T04:11:37;13.00;;;11.45;;
15536;SDS011;7870;52.448;13.270;2023-05-07T04:14:08;11.77;;;10.65;;
15536;SDS011;7870;52.448;13.270;2023-05-07T04:16:35;12.27;;;10.98;;
15536;SDS011;7870;52.448;13.270;2023-05-07T04:19:02;11.98;;;10.70;;
15536;SDS011;7870;52.448;13.270;2023-05-07T04:21:28;12.32;;;11.10;;
15536;SDS011;7870;52.448;13.270;2023-05-07T04:23:57;12.40;;;10.98;;
15536;SDS011;7870;52.448;13.270;2023-05-07T04:26:23;11.35;;;10.13;;
15536;SDS011;7870;52.448;13.270;2023-05-07T04:28:50;11.90;;;10.57;;
15536;SDS011;7870;52.448;13.270;2023-05-07T04:31:17;11.70;;;10.55;;
15536;SDS011;7870;52.448;13.270;2023-05-07T04:33:47;11.93;;;10.57;;
15536;SDS011;7870;52.448;13.270;2023-05-07T04:36:14;12.30;;;11.05;;
15536;SDS011;7870;52.448;13.270;2023-05-07T04:38:47;12.10;;;10.77;;
15536;SDS011;7870;52.448;13.270;2023-05-07T04:41:15;11.10;;;9.95;;
15536;SDS011;7870;52.448;13.270;2023-05-07T04:43:42;11.85;;;10.70;;
15536;SDS011;7870;52.448;13.270;2023-05-07T04:46:11;10.90;;;9.80;;
15536;SDS011;7870;52.448;13.270;2023-05-07T04:48:38;10.95;;;9.75;;
15536;SDS011;7870;52.448;13.270;2023-05-07T04:51:06;11.82;;;10.15;;
15536;SDS011;7870;52.448;13.270;2023-05-07T04:53:33;11.05;;;9.30;;
15536;SDS011;7870;52.448;13.270;2023-05-07T04:55:59;11.13;;;9.13;;
15536;SDS011;7870;52.448;13.270;2023-05-07T04:58:32;10.82;;;8.80;;
15536;SDS011;7870;52.448;13.270;2023-05-07T05:00:59;11.38;;;9.05;;
15536;SDS011;7870;52.448;13.270;2023-05-07T05:03:27;10.80;;;8.68;;
15536;SDS011;7870;52.448;13.270;2023-05-07T05:05:54;9.50;;;8.52;;
15536;SDS011;7870;52.448;13.270;2023-05-07T05:08:22;10.80;;;8.73;;
15536;SDS011;7870;52.448;13.270;2023-05-07T05:10:48;10.13;;;8.32;;
15536;SDS011;7870;52.448;13.270;2023-05-07T05:13:16;11.25;;;9.52;;
15536;SDS011;7870;52.448;13.270;2023-05-07T05:15:43;9.52;;;8.57;;
15536;SDS011;7870;52.448;13.270;2023-05-07T05:18:10;11.00;;;8.57;;
15536;SDS011;7870;52.448;13.270;2023-05-07T05:20:38;10.35;;;8.50;;
15536;SDS011;7870;52.448;13.270;2023-05-07T05:23:05;9.40;;;8.30;;
15536;SDS011;7870;52.448;13.270;2023-05-07T05:25:34;10.38;;;9.00;;
15536;SDS011;7870;52.448;13.270;2023-05-07T05:28:00;8.85;;;7.90;;
15536;SDS011;7870;52.448;13.270;2023-05-07T05:30:28;10.15;;;8.85;;
15536;SDS011;7870;52.448;13.270;2023-05-07T05:32:54;9.52;;;8.63;;
15536;SDS011;7870;52.448;13.270;2023-05-07T05:35:21;8.77;;;7.57;;
15536;SDS011;7870;52.448;13.270;2023-05-07T05:37:48;9.52;;;8.52;;
15536;SDS011;7870;52.448;13.270;2023-05-07T05:40:16;8.70;;;7.80;;
15536;SDS011;7870;52.448;13.270;2023-05-07T05:42:43;10.27;;;8.35;;
15536;SDS011;7870;52.448;13.270;2023-05-07T05:45:10;10.00;;;8.38;;
15536;SDS011;7870;52.448;13.270;2023-05-07T05:47:38;12.32;;;8.80;;
15536;SDS011;7870;52.448;13.270;2023-05-07T05:50:06;8.65;;;7.75;;
15536;SDS011;7870;52.448;13.270;2023-05-07T05:52:33;7.93;;;7.13;;
15536;SDS011;7870;52.448;13.270;2023-05-07T05:55:00;8.85;;;7.95;;
15536;SDS011;7870;52.448;13.270;2023-05-07T05:57:26;10.00;;;7.88;;
15536;SDS011;7870;52.448;13.270;2023-05-07T05:59:54;8.05;;;7.13;;
15536;SDS011;7870;52.448;13.270;2023-05-07T06:02:21;8.80;;;6.90;;
15536;SDS011;7870;52.448;13.270;2023-05-07T06:04:48;8.45;;;6.95;;
15536;SDS011;7870;52.448;13.270;2023-05-07T06:07:18;7.55;;;6.68;;
15536;SDS011;7870;52.448;13.270;2023-05-07T06:09:44;8.20;;;6.40;;
15536;SDS011;7870;52.448;13.270;2023-05-07T06:12:11;8.57;;;7.18;;
15536;SDS011;7870;52.448;13.270;2023-05-07T06:14:38;11.48;;;7.07;;
15536;SDS011;7870;52.448;13.270;2023-05-07T06:17:05;8.77;;;6.40;;
15536;SDS011;7870;52.448;13.270;2023-05-07T06:19:31;8.93;;;6.43;;
15536;SDS011;7870;52.448;13.270;2023-05-07T06:21:59;9.75;;;6.90;;
15536;SDS011;7870;52.448;13.270;2023-05-07T06:24:29;7.28;;;6.20;;
15536;SDS011;7870;52.448;13.270;2023-05-07T06:26:55;7.57;;;6.22;;
15536;SDS011;7870;52.448;13.270;2023-05-07T06:29:22;7.15;;;5.85;;
15536;SDS011;7870;52.448;13.270;2023-05-07T06:31:49;8.15;;;6.68;;
15536;SDS011;7870;52.448;13.270;2023-05-07T06:34:15;8.57;;;6.10;;
15536;SDS011;7870;52.448;13.270;2023-05-07T06:36:42;6.00;;;5.05;;
15536;SDS011;7870;52.448;13.270;2023-05-07T06:39:24;5.88;;;4.78;;
15536;SDS011;7870;52.448;13.270;2023-05-07T06:41:51;8.73;;;5.65;;
15536;SDS011;7870;52.448;13.270;2023-05-07T06:44:24;6.53;;;5.22;;
15536;SDS011;7870;52.448;13.270;2023-05-07T06:47:01;5.97;;;5.38;;
15536;SDS011;7870;52.448;13.270;2023-05-07T06:49:28;5.90;;;5.25;;
15536;SDS011;7870;52.448;13.270;2023-05-07T06:51:54;8.52;;;5.30;;
15536;SDS011;7870;52.448;13.270;2023-05-07T06:54:22;9.13;;;6.35;;
15536;SDS011;7870;52.448;13.270;2023-05-07T06:56:50;7.40;;;6.70;;
15536;SDS011;7870;52.448;13.270;2023-05-07T06:59:16;6.70;;;6.00;;
15536;SDS011;7870;52.448;13.270;2023-05-07T07:01:43;6.82;;;6.13;;
15536;SDS011;7870;52.448;13.270;2023-05-07T07:04:11;9.02;;;6.45;;
15536;SDS011;7870;52.448;13.270;2023-05-07T07:06:39;7.72;;;6.05;;
15536;SDS011;7870;52.448;13.270;2023-05-07T07:09:09;8.18;;;5.95;;
15536;SDS011;7870;52.448;13.270;2023-05-07T07:11:36;6.60;;;5.90;;
15536;SDS011;7870;52.448;13.270;2023-05-07T07:14:03;6.68;;;5.97;;
15536;SDS011;7870;52.448;13.270;2023-05-07T07:16:35;8.68;;;6.45;;
15536;SDS011;7870;52.448;13.270;2023-05-07T07:19:01;7.72;;;6.82;;
15536;SDS011;7870;52.448;13.270;2023-05-07T07:21:28;7.43;;;6.72;;
15536;SDS011;7870;52.448;13.270;2023-05-07T07:23:55;9.25;;;6.28;;
15536;SDS011;7870;52.448;13.270;2023-05-07T07:26:21;7.80;;;6.68;;
15536;SDS011;7870;52.448;13.270;2023-05-07T07:28:48;6.78;;;5.57;;
15536;SDS011;7870;52.448;13.270;2023-05-07T07:31:18;8.17;;;6.53;;
15536;SDS011;7870;52.448;13.270;2023-05-07T07:33:46;7.30;;;5.53;;
15536;SDS011;7870;52.448;13.270;2023-05-07T07:36:13;7.03;;;5.53;;
15536;SDS011;7870;52.448;13.270;2023-05-07T07:38:39;5.93;;;4.85;;
15536;SDS011;7870;52.448;13.270;2023-05-07T07:41:09;6.95;;;5.10;;
15536;SDS011;7870;52.448;13.270;2023-05-07T07:43:36;5.82;;;4.57;;
15536;SDS011;7870;52.448;13.270;2023-05-07T07:46:03;6.45;;;4.10;;
15536;SDS011;7870;52.448;13.270;2023-05-07T07:48:30;5.32;;;4.43;;
15536;SDS011;7870;52.448;13.270;2023-05-07T07:50:58;5.95;;;4.38;;
15536;SDS011;7870;52.448;13.270;2023-05-07T07:53:24;6.97;;;4.03;;
15536;SDS011;7870;52.448;13.270;2023-05-07T07:55:51;4.88;;;4.10;;
15536;SDS011;7870;52.448;13.270;2023-05-07T07:58:26;5.47;;;4.38;;
15536;SDS011;7870;52.448;13.270;2023-05-07T08:00:53;5.38;;;3.78;;
15536;SDS011;7870;52.448;13.270;2023-05-07T08:03:22;6.45;;;4.15;;
15536;SDS011;7870;52.448;13.270;2023-05-07T08:05:53;4.55;;;3.53;;
15536;SDS011;7870;52.448;13.270;2023-05-07T08:08:20;6.13;;;3.40;;
15536;SDS011;7870;52.448;13.270;2023-05-07T08:10:47;4.72;;;3.25;;
15536;SDS011;7870;52.448;13.270;2023-05-07T08:13:23;6.60;;;3.53;;
15536;SDS011;7870;52.448;13.270;2023-05-07T08:15:50;5.15;;;3.00;;
15536;SDS011;7870;52.448;13.270;2023-05-07T08:18:17;5.15;;;3.30;;
15536;SDS011;7870;52.448;13.270;2023-05-07T08:20:44;4.05;;;3.00;;
15536;SDS011;7870;52.448;13.270;2023-05-07T08:23:15;5.57;;;3.15;;
15536;SDS011;7870;52.448;13.270;2023-05-07T08:25:43;9.23;;;3.10;;
15536;SDS011;7870;52.448;13.270;2023-05-07T08:28:10;6.43;;;2.92;;
15536;SDS011;7870;52.448;13.270;2023-05-07T08:30:38;4.65;;;2.80;;
15536;SDS011;7870;52.448;13.270;2023-05-07T08:33:05;4.15;;;2.78;;
15536;SDS011;7870;52.448;13.270;2023-05-07T08:35:32;3.63;;;2.70;;
15536;SDS011;7870;52.448;13.270;2023-05-07T08:37:58;4.32;;;2.45;;
15536;SDS011;7870;52.448;13.270;2023-05-07T08:40:25;3.97;;;2.63;;
15536;SDS011;7870;52.448;13.270;2023-05-07T08:42:54;3.67;;;2.63;;
15536;SDS011;7870;52.448;13.270;2023-05-07T08:45:22;6.13;;;3.00;;
15536;SDS011;7870;52.448;13.270;2023-05-07T08:47:51;4.68;;;2.42;;
15536;SDS011;7870;52.448;13.270;2023-05-07T08:50:29;4.82;;;2.88;;
15536;SDS011;7870;52.448;13.270;2023-05-07T08:52:56;4.05;;;2.60;;
15536;SDS011;7870;52.448;13.270;2023-05-07T08:55:23;4.85;;;3.05;;
15536;SDS011;7870;52.448;13.270;2023-05-07T08:57:51;5.20;;;2.50;;
15536;SDS011;7870;52.448;13.270;2023-05-07T09:00:19;5.35;;;2.20;;
15536;SDS011;7870;52.448;13.270;2023-05-07T09:02:49;6.45;;;2.70;;
15536;SDS011;7870;52.448;13.270;2023-05-07T09:05:16;5.22;;;2.42;;
15536;SDS011;7870;52.448;13.270;2023-05-07T09:07:42;4.60;;;2.28;;
15536;SDS011;7870;52.448;13.270;2023-05-07T09:10:11;3.53;;;2.38;;
15536;SDS011;7870;52.448;13.270;2023-05-07T09:12:39;6.20;;;2.60;;
15536;SDS011;7870;52.448;13.270;2023-05-07T09:15:09;5.35;;;2.70;;
15536;SDS011;7870;52.448;13.270;2023-05-07T09:17:36;4.05;;;2.10;;
15536;SDS011;7870;52.448;13.270;2023-05-07T09:20:04;4.07;;;2.22;;
15536;SDS011;7870;52.448;13.270;2023-05-07T09:22:37;4.43;;;3.30;;
15536;SDS011;7870;52.448;13.270;2023-05-07T09:25:08;4.65;;;3.30;;
15536;SDS011;7870;52.448;13.270;2023-05-07T09:27:37;4.15;;;2.45;;
15536;SDS011;7870;52.448;13.270;2023-05-07T09:30:07;3.53;;;2.30;;
15536;SDS011;7870;52.448;13.270;2023-05-07T09:32:36;4.32;;;2.50;;
15536;SDS011;7870;52.448;13.270;2023-05-07T09:35:06;6.20;;;2.20;;
15536;SDS011;7870;52.448;13.270;2023-05-07T09:37:41;3.33;;;2.15;;
15536;SDS011;7870;52.448;13.270;2023-05-07T09:40:08;4.82;;;2.13;;
15536;SDS011;7870;52.448;13.270;2023-05-07T09:42:49;4.45;;;2.42;;
15536;SDS011;7870;52.448;13.270;2023-05-07T09:45:21;3.65;;;2.03;;
15536;SDS011;7870;52.448;13.270;2023-05-07T09:47:48;3.78;;;2.20;;
15536;SDS011;7870;52.448;13.270;2023-05-07T09:50:16;3.65;;;2.10;;
15536;SDS011;7870;52.448;13.270;2023-05-07T09:52:43;8.50;;;2.28;;
15536;SDS011;7870;52.448;13.270;2023-05-07T09:55:10;3.67;;;2.47;;
15536;SDS011;7870;52.448;13.270;2023-05-07T09:57:39;3.42;;;2.50;;
15536;SDS011;7870;52.448;13.270;2023-05-07T10:00:07;3.33;;;1.85;;
15536;SDS011;7870;52.448;13.270;2023-05-07T10:02:51;4.22;;;2.70;;
15536;SDS011;7870;52.448;13.270;2023-05-07T10:05:26;5.00;;;1.90;;
15536;SDS011;7870;52.448;13.270;2023-05-07T10:07:56;6.00;;;2.80;;
15536;SDS011;7870;52.448;13.270;2023-05-07T10:10:23;6.78;;;2.30;;
15536;SDS011;7870;52.448;13.270;2023-05-07T10:12:51;3.08;;;2.20;;
15536;SDS011;7870;52.448;13.270;2023-05-07T10:15:26;4.82;;;2.78;;
15536;SDS011;7870;52.448;13.270;2023-05-07T10:17:54;3.83;;;2.40;;
15536;SDS011;7870;52.448;13.270;2023-05-07T10:20:22;5.50;;;2.72;;
15536;SDS011;7870;52.448;13.270;2023-05-07T10:22:50;4.50;;;2.95;;
15536;SDS011;7870;52.448;13.270;2023-05-07T10:25:25;5.05;;;2.10;;
15536;SDS011;7870;52.448;13.270;2023-05-07T10:27:59;2.95;;;1.80;;
15536;SDS011;7870;52.448;13.270;2023-05-07T10:30:32;4.20;;;1.70;;
15536;SDS011;7870;52.448;13.270;2023-05-07T10:33:05;3.90;;;2.30;;
15536;SDS011;7870;52.448;13.270;2023-05-07T10:35:38;3.45;;;2.20;;
15536;SDS011;7870;52.448;13.270;2023-05-07T10:38:10;5.18;;;2.65;;
15536;SDS011;7870;52.448;13.270;2023-05-07T10:40:39;3.25;;;1.77;;
15536;SDS011;7870;52.448;13.270;2023-05-07T10:43:07;4.25;;;2.35;;
15536;SDS011;7870;52.448;13.270;2023-05-07T10:45:41;2.75;;;1.70;;
15536;SDS011;7870;52.448;13.270;2023-05-07T10:48:09;3.33;;;1.70;;
15536;SDS011;7870;52.448;13.270;2023-05-07T10:51:17;3.25;;;1.88;;
15536;SDS011;7870;52.448;13.270;2023-05-07T10:53:45;4.80;;;1.73;;
15536;SDS011;7870;52.448;13.270;2023-05-07T10:58:51;2.67;;;1.50;;
15536;SDS011;7870;52.448;13.270;2023-05-07T11:01:48;3.03;;;1.60;;
15536;SDS011;7870;52.448;13.270;2023-05-07T11:04:38;4.15;;;1.40;;
15536;SDS011;7870;52.448;13.270;2023-05-07T11:07:27;2.55;;;1.40;;
15536;SDS011;7870;52.448;13.270;2023-05-07T11:10:01;2.72;;;1.60;;
15536;SDS011;7870;52.448;13.270;2023-05-07T11:15:13;5.20;;;1.40;;
15536;SDS011;7870;52.448;13.270;2023-05-07T11:17:53;3.57;;;1.30;;
15536;SDS011;7870;52.448;13.270;2023-05-07T11:26:17;3.08;;;1.30;;
15536;SDS011;7870;52.448;13.270;2023-05-07T11:28:44;4.85;;;2.00;;
15536;SDS011;7870;52.448;13.270;2023-05-07T11:31:11;1.77;;;1.17;;
15536;SDS011;7870;52.448;13.270;2023-05-07T11:33:39;3.67;;;1.45;;
15536;SDS011;7870;52.448;13.270;2023-05-07T11:36:10;3.35;;;1.33;;
15536;SDS011;7870;52.448;13.270;2023-05-07T11:38:43;2.10;;;1.20;;
15536;SDS011;7870;52.448;13.270;2023-05-07T11:41:09;3.60;;;1.70;;
15536;SDS011;7870;52.448;13.270;2023-05-07T11:43:36;2.72;;;1.58;;
15536;SDS011;7870;52.448;13.270;2023-05-07T11:46:07;2.50;;;1.00;;
15536;SDS011;7870;52.448;13.270;2023-05-07T11:48:34;2.70;;;1.08;;
15536;SDS011;7870;52.448;13.270;2023-05-07T11:51:02;2.22;;;1.17;;
15536;SDS011;7870;52.448;13.270;2023-05-07T11:53:37;2.60;;;1.20;;
15536;SDS011;7870;52.448;13.270;2023-05-07T11:56:15;1.83;;;1.10;;
15536;SDS011;7870;52.448;13.270;2023-05-07T11:58:43;3.22;;;1.40;;
15536;SDS011;7870;52.448;13.270;2023-05-07T12:01:11;2.35;;;1.27;;
15536;SDS011;7870;52.448;13.270;2023-05-07T12:03:42;1.85;;;1.23;;
15536;SDS011;7870;52.448;13.270;2023-05-07T12:06:10;2.88;;;1.30;;
15536;SDS011;7870;52.448;13.270;2023-05-07T12:08:38;3.20;;;1.50;;
15536;SDS011;7870;52.448;13.270;2023-05-07T12:11:22;3.00;;;1.40;;
15536;SDS011;7870;52.448;13.270;2023-05-07T12:13:50;3.72;;;1.40;;
15536;SDS011;7870;52.448;13.270;2023-05-07T12:16:17;2.60;;;1.20;;
15536;SDS011;7870;52.448;13.270;2023-05-07T12:18:44;2.47;;;1.20;;
15536;SDS011;7870;52.448;13.270;2023-05-07T12:21:11;5.88;;;1.50;;
15536;SDS011;7870;52.448;13.270;2023-05-07T12:23:38;3.50;;;1.60;;
15536;SDS011;7870;52.448;13.270;2023-05-07T12:26:04;1.73;;;1.10;;
15536;SDS011;7870;52.448;13.270;2023-05-07T12:28:37;3.47;;;1.40;;
15536;SDS011;7870;52.448;13.270;2023-05-07T12:31:05;3.40;;;1.20;;
15536;SDS011;7870;52.448;13.270;2023-05-07T12:33:32;3.15;;;1.30;;
15536;SDS011;7870;52.448;13.270;2023-05-07T12:36:02;1.73;;;1.10;;
15536;SDS011;7870;52.448;13.270;2023-05-07T12:38:33;5.15;;;1.92;;
15536;SDS011;7870;52.448;13.270;2023-05-07T12:41:01;2.90;;;1.15;;
15536;SDS011;7870;52.448;13.270;2023-05-07T12:43:28;2.17;;;1.20;;
15536;SDS011;7870;52.448;13.270;2023-05-07T12:45:56;2.85;;;1.40;;
15536;SDS011;7870;52.448;13.270;2023-05-07T12:48:23;3.58;;;1.30;;
15536;SDS011;7870;52.448;13.270;2023-05-07T12:50:53;4.72;;;1.50;;
15536;SDS011;7870;52.448;13.270;2023-05-07T12:53:21;2.53;;;1.08;;
15536;SDS011;7870;52.448;13.270;2023-05-07T12:55:49;5.70;;;3.10;;
15536;SDS011;7870;52.448;13.270;2023-05-07T12:58:35;4.55;;;2.53;;
15536;SDS011;7870;52.448;13.270;2023-05-07T13:01:06;2.35;;;1.13;;
15536;SDS011;7870;52.448;13.270;2023-05-07T13:03:34;3.50;;;1.70;;
15536;SDS011;7870;52.448;13.270;2023-05-07T13:06:06;2.65;;;1.35;;
15536;SDS011;7870;52.448;13.270;2023-05-07T13:08:37;4.10;;;1.30;;
15536;SDS011;7870;52.448;13.270;2023-05-07T13:11:07;3.08;;;1.20;;
15536;SDS011;7870;52.448;13.270;2023-05-07T13:13:34;1.88;;;1.20;;
15536;SDS011;7870;52.448;13.270;2023-05-07T13:16:01;3.30;;;1.73;;
15536;SDS011;7870;52.448;13.270;2023-05-07T13:18:29;2.10;;;1.17;;
15536;SDS011;7870;52.448;13.270;2023-05-07T13:20:57;2.10;;;1.15;;
15536;SDS011;7870;52.448;13.270;2023-05-07T13:23:24;4.47;;;1.23;;
15536;SDS011;7870;52.448;13.270;2023-05-07T13:25:51;2.15;;;1.02;;
15536;SDS011;7870;52.448;13.270;2023-05-07T13:28:20;2.75;;;1.13;;
15536;SDS011;7870;52.448;13.270;2023-05-07T13:30:46;4.28;;;1.40;;
15536;SDS011;7870;52.448;13.270;2023-05-07T13:33:13;2.88;;;0.80;;
15536;SDS011;7870;52.448;13.270;2023-05-07T13:35:40;3.85;;;1.30;;
15536;SDS011;7870;52.448;13.270;2023-05-07T13:38:07;2.13;;;1.00;;
15536;SDS011;7870;52.448;13.270;2023-05-07T13:40:34;1.75;;;1.10;;
15536;SDS011;7870;52.448;13.270;2023-05-07T13:43:00;1.80;;;1.10;;
15536;SDS011;7870;52.448;13.270;2023-05-07T13:45:30;2.53;;;1.00;;
15536;SDS011;7870;52.448;13.270;2023-05-07T13:47:57;2.05;;;1.20;;
15536;SDS011;7870;52.448;13.270;2023-05-07T13:50:23;2.13;;;1.23;;
15536;SDS011;7870;52.448;13.270;2023-05-07T13:52:50;2.13;;;0.90;;
15536;SDS011;7870;52.448;13.270;2023-05-07T13:55:20;1.80;;;0.85;;
15536;SDS011;7870;52.448;13.270;2023-05-07T13:57:47;4.15;;;1.10;;
15536;SDS011;7870;52.448;13.270;2023-05-07T14:00:14;3.65;;;1.23;;
15536;SDS011;7870;52.448;13.270;2023-05-07T14:02:42;1.42;;;0.90;;
15536;SDS011;7870;52.448;13.270;2023-05-07T14:05:09;2.35;;;1.23;;
15536;SDS011;7870;52.448;13.270;2023-05-07T14:07:36;2.88;;;1.27;;
15536;SDS011;7870;52.448;13.270;2023-05-07T14:10:03;2.35;;;1.30;;
15536;SDS011;7870;52.448;13.270;2023-05-07T14:12:31;2.08;;;0.90;;
15536;SDS011;7870;52.448;13.270;2023-05-07T14:14:58;2.38;;;1.10;;
15536;SDS011;7870;52.448;13.270;2023-05-07T14:17:25;2.70;;;1.13;;
15536;SDS011;7870;52.448;13.270;2023-05-07T14:19:53;2.10;;;0.90;;
15536;SDS011;7870;52.448;13.270;2023-05-07T14:22:20;3.00;;;1.13;;
15536;SDS011;7870;52.448;13.270;2023-05-07T14:24:48;2.15;;;1.20;;
15536;SDS011;7870;52.448;13.270;2023-05-07T14:27:32;4.30;;;1.00;;
15536;SDS011;7870;52.448;13.270;2023-05-07T14:29:58;2.25;;;1.20;;
15536;SDS011;7870;52.448;13.270;2023-05-07T14:32:25;3.72;;;1.25;;
15536;SDS011;7870;52.448;13.270;2023-05-07T14:34:52;2.25;;;1.30;;
15536;SDS011;7870;52.448;13.270;2023-05-07T14:37:18;3.47;;;1.58;;
15536;SDS011;7870;52.448;13.270;2023-05-07T14:39:46;2.28;;;1.55;;
15536;SDS011;7870;52.448;13.270;2023-05-07T14:42:15;1.60;;;1.10;;
15536;SDS011;7870;52.448;13.270;2023-05-07T14:44:42;2.35;;;1.20;;
15536;SDS011;7870;52.448;13.270;2023-05-07T14:47:09;2.78;;;1.35;;
15536;SDS011;7870;52.448;13.270;2023-05-07T14:49:35;2.65;;;1.30;;
15536;SDS011;7870;52.448;13.270;2023-05-07T14:52:02;3.20;;;1.38;;
15536;SDS011;7870;52.448;13.270;2023-05-07T14:54:30;3.60;;;1.50;;
15536;SDS011;7870;52.448;13.270;2023-05-07T14:56:57;1.80;;;1.17;;